Time;durP1;ratioP1;P1;durP2;ratioP2;P2;SDS_P1;SDS_P2;PMS_P1;PMS_P2;Temp;Humidity;BMP_temperature;BMP_pressure;BME280_temperature;BME280_humidity;BME280_pressure;Samples;Min_cycle;Max_cycle;Signal;HPM_P1;HPM_P2
2021/10/26 00:00:45;;;;;;;17.35;10.68;;;12.80;99.90;;;10.78;100.00;100781.09;4998505;28;20084;-86
2021/10/26 00:03:15;;;;;;;19.67;10.30;;;12.90;99.90;;;10.82;100.00;100774.28;5017483;28;20068;-86
2021/10/26 00:05:42;;;;;;;19.15;10.68;;;12.80;99.90;;;10.85;100.00;100776.66;5017288;28;20041;-86
2021/10/26 00:08:10;;;;;;;20.13;10.55;;;12.90;99.90;;;10.88;100.00;100770.81;5016635;28;20143;-86
2021/10/26 00:10:37;;;;;;;18.33;10.00;;;12.90;99.90;;;10.82;100.00;100779.72;5017227;28;20149;-86
2021/10/26 00:13:04;;;;;;;16.15;9.70;;;12.90;99.90;;;10.83;100.00;100781.41;5020547;28;20079;-86
2021/10/26 00:15:32;;;;;;;21.52;9.63;;;12.90;99.90;;;10.83;100.00;100784.13;5003337;28;20089;-86
2021/10/26 00:17:59;;;;;;;15.52;9.60;;;12.80;99.90;;;10.85;100.00;100784.81;5021726;28;20128;-86
2021/10/26 00:20:30;;;;;;;19.25;10.40;;;12.80;99.90;;;10.81;100.00;100786.19;5020621;28;20689;-86
2021/10/26 00:22:57;;;;;;;17.35;9.73;;;12.90;99.90;;;10.80;100.00;100784.50;5021618;28;20065;-85
2021/10/26 00:25:25;;;;;;;17.08;10.07;;;12.90;99.90;;;10.80;100.00;100784.50;5020656;28;20041;-86
2021/10/26 00:27:52;;;;;;;17.45;8.98;;;12.80;99.90;;;10.83;100.00;100780.56;5021164;28;20124;-86
2021/10/26 00:30:19;;;;;;;18.92;9.88;;;12.90;99.90;;;10.82;100.00;100777.00;5020113;28;20565;-86
2021/10/26 00:32:47;;;;;;;16.63;8.75;;;12.80;99.90;;;10.82;100.00;100778.88;5001057;28;20050;-86
2021/10/26 00:35:15;;;;;;;17.33;9.88;;;12.80;99.90;;;10.82;100.00;100787.03;5019908;28;20115;-86
2021/10/26 00:37:44;;;;;;;16.35;9.63;;;12.90;99.90;;;10.76;100.00;100781.28;5002232;28;20073;-87
2021/10/26 00:40:14;;;;;;;14.88;9.23;;;12.80;99.90;;;10.77;100.00;100784.84;5003052;28;20583;-86
2021/10/26 00:42:42;;;;;;;15.88;8.68;;;12.80;99.90;;;10.77;100.00;100795.72;5003203;28;20410;-86
2021/10/26 00:45:10;;;;;;;17.80;10.13;;;12.80;99.90;;;10.74;100.00;100786.06;5010198;28;20056;-86
2021/10/26 00:47:38;;;;;;;15.73;9.02;;;12.80;99.90;;;10.77;100.00;100784.84;5002616;28;20077;-85
2021/10/26 00:50:06;;;;;;;18.75;10.55;;;12.80;99.90;;;10.74;100.00;100779.78;5002963;28;20049;-86
2021/10/26 00:52:34;;;;;;;16.73;10.00;;;12.80;99.90;;;10.75;100.00;100781.44;5003048;28;20121;-86
2021/10/26 00:55:04;;;;;;;14.95;10.18;;;12.80;99.90;;;10.74;100.00;100780.63;5002596;28;20070;-87
2021/10/26 00:57:32;;;;;;;17.50;10.73;;;12.80;99.90;;;10.71;100.00;100775.53;5000936;28;20604;-86
2021/10/26 01:00:08;;;;;;;18.98;10.13;;;12.80;99.90;;;10.74;100.00;100787.94;5020712;28;20041;-86
2021/10/26 01:02:36;;;;;;;19.55;10.05;;;12.80;99.90;;;10.73;100.00;100783.50;5003240;28;20064;-86
2021/10/26 01:05:04;;;;;;;20.55;10.95;;;12.80;99.90;;;10.73;100.00;100781.63;5002824;28;20041;-86
2021/10/26 01:07:32;;;;;;;18.27;10.30;;;12.80;99.90;;;10.69;100.00;100790.34;5002540;28;20056;-86
2021/10/26 01:09:59;;;;;;;16.60;9.43;;;12.80;99.90;;;10.69;100.00;100793.91;4995327;28;20041;-86
2021/10/26 01:12:29;;;;;;;19.80;10.23;;;12.80;99.90;;;10.75;100.00;100795.06;5019602;28;20049;-86
2021/10/26 01:14:57;;;;;;;16.48;9.88;;;12.80;99.90;;;10.77;100.00;100795.72;5002857;28;20505;-86
2021/10/26 01:17:25;;;;;;;15.43;9.48;;;12.80;99.90;;;10.81;100.00;100797.06;5001444;28;20100;-86
2021/10/26 01:19:56;;;;;;;18.25;10.00;;;12.80;99.90;;;10.85;100.00;100792.97;5003074;28;20574;-86
2021/10/26 01:22:28;;;;;;;22.15;10.07;;;12.80;99.90;;;10.82;100.00;100787.03;5002984;28;20522;-86
2021/10/26 01:24:56;;;;;;;20.05;10.02;;;12.80;99.90;;;10.78;100.00;100796.59;5018518;28;20057;-86
2021/10/26 01:27:25;;;;;;;19.42;9.85;;;12.80;99.90;;;10.78;100.00;100797.44;5000188;28;20077;-86
2021/10/26 01:29:55;;;;;;;19.10;10.95;;;12.80;99.90;;;10.79;100.00;100793.69;5002609;28;20061;-86
2021/10/26 01:32:27;;;;;;;22.75;10.50;;;12.80;99.90;;;10.78;100.00;100800.16;5002037;28;20056;-86
2021/10/26 01:35:18;;;;;;;15.45;10.52;;;12.80;99.90;;;10.75;100.00;100798.63;5018991;28;20507;-86
2021/10/26 01:37:46;;;;;;;18.63;10.40;;;12.80;99.90;;;10.76;100.00;100800.34;5002807;28;20049;-87
2021/10/26 01:40:13;;;;;;;22.73;11.13;;;12.80;99.90;;;10.75;100.00;100803.22;5001929;28;20437;-87
2021/10/26 01:42:41;;;;;;;19.45;10.93;;;12.80;99.90;;;10.75;100.00;100811.41;5019576;28;20038;-86
2021/10/26 01:45:09;;;;;;;21.45;11.73;;;12.80;99.90;;;10.75;100.00;100798.63;5001073;28;20049;-86
2021/10/26 01:47:36;;;;;;;21.63;11.80;;;12.80;99.90;;;10.77;100.00;100801.19;5018398;28;20108;-85
2021/10/26 01:50:11;;;;;;;17.83;11.32;;;12.80;99.90;;;10.82;100.00;100798.78;5001076;28;20521;-86
2021/10/26 01:52:40;;;;;;;16.73;10.32;;;12.80;99.90;;;10.83;100.00;100810.50;5019392;28;20116;-86
2021/10/26 01:55:08;;;;;;;21.50;11.60;;;12.80;99.90;;;10.84;100.00;100813.06;5001840;28;20046;-86
2021/10/26 01:57:38;;;;;;;;;;;12.90;99.90;;;10.86;100.00;100812.88;5001706;28;20132;-86
2021/10/26 02:00:23;;;;;;;19.98;10.80;;;12.90;99.90;;;10.83;100.00;100808.63;5002391;28;19946;-86
2021/10/26 02:02:51;;;;;;;20.02;10.80;;;12.90;99.90;;;10.85;100.00;100801.16;5000108;28;20136;-87
2021/10/26 02:05:19;;;;;;;18.08;10.60;;;12.90;99.90;;;10.86;100.00;100799.28;5001773;28;20108;-86
2021/10/26 02:07:48;;;;;;;17.58;10.20;;;12.90;99.90;;;10.86;100.00;100794.66;5001672;28;20538;-87
2021/10/26 02:10:17;;;;;;;20.60;11.18;;;12.90;99.90;;;10.82;100.00;100798.78;5001021;28;20681;-86
2021/10/26 02:12:46;;;;;;;16.20;10.30;;;12.90;99.90;;;10.83;100.00;100795.00;5001465;28;20454;-87
2021/10/26 02:15:14;;;;;;;23.83;11.05;;;12.80;99.90;;;10.85;100.00;100792.97;5001837;28;20091;-86
2021/10/26 02:17:41;;;;;;;19.65;11.25;;;12.90;99.90;;;10.83;100.00;100803.19;5000819;28;20049;-86
2021/10/26 02:20:11;;;;;;;19.75;11.10;;;12.90;99.90;;;10.85;100.00;100800.28;5000618;28;20099;-86
2021/10/26 02:22:38;;;;;;;24.42;10.85;;;12.80;99.90;;;10.84;100.00;100802.16;5001154;28;20472;-87
2021/10/26 02:25:08;;;;;;;23.75;11.85;;;12.80;99.90;;;10.83;100.00;100795.00;5001443;28;20097;-86
2021/10/26 02:27:36;;;;;;;26.15;11.70;;;12.90;99.90;;;10.83;100.00;100800.44;5001751;28;20046;-87
2021/10/26 02:30:05;;;;;;;23.45;11.32;;;12.90;99.90;;;10.84;100.00;100796.72;5001183;28;20045;-87
2021/10/26 02:32:32;;;;;;;23.02;12.02;;;12.90;99.90;;;10.85;100.00;100798.44;4999533;28;20049;-87
2021/10/26 02:34:59;;;;;;;21.13;11.45;;;12.90;99.90;;;10.87;100.00;100804.53;5017778;28;20171;-86
2021/10/26 02:37:27;;;;;;;20.73;10.73;;;12.80;99.90;;;10.86;100.00;100805.56;5000160;28;20149;-86
2021/10/26 02:39:54;;;;;;;24.83;11.35;;;12.90;99.90;;;10.87;100.00;100803.66;5001726;28;20050;-86
2021/10/26 02:42:23;;;;;;;17.55;10.80;;;12.80;99.90;;;10.88;100.00;100797.22;5001793;28;20048;-86
2021/10/26 02:44:56;;;;;;;19.27;10.52;;;12.90;99.90;;;10.90;100.00;100800.59;5000847;28;20044;-86
2021/10/26 02:47:23;;;;;;;19.45;10.88;;;12.90;99.90;;;10.89;100.00;100797.03;5018600;28;20425;-85
2021/10/26 02:49:50;;;;;;;18.63;10.38;;;12.90;99.90;;;10.88;100.00;100803.50;5000453;28;20053;-86
2021/10/26 02:52:18;;;;;;;22.77;11.45;;;12.90;99.90;;;10.87;100.00;100807.25;5018500;28;20560;-86
2021/10/26 02:54:45;;;;;;;24.67;11.18;;;12.90;99.90;;;10.85;100.00;100798.44;5017124;28;20069;-86
2021/10/26 02:57:15;;;;;;;20.23;11.07;;;12.80;99.90;;;10.87;100.00;100801.81;5000712;28;20046;-87
2021/10/26 02:59:43;;;;;;;19.55;11.10;;;12.80;99.90;;;10.83;100.00;100805.06;5000049;28;20053;-86
2021/10/26 03:02:11;;;;;;;32.60;11.73;;;12.90;99.90;;;10.80;100.00;100805.44;4999872;28;20045;-86
2021/10/26 03:04:39;;;;;;;21.73;11.43;;;12.90;99.90;;;10.78;100.00;100802.88;5000683;28;20056;-85
2021/10/26 03:07:06;;;;;;;24.60;11.27;;;12.90;99.90;;;10.81;100.00;100807.13;4999883;28;20509;-86
2021/10/26 03:09:33;;;;;;;24.95;12.27;;;12.90;99.90;;;10.82;100.00;100797.94;5018431;28;20077;-86
2021/10/26 03:12:02;;;;;;;22.73;11.30;;;12.80;99.90;;;10.86;100.00;100794.66;5000671;28;20432;-85
2021/10/26 03:14:29;;;;;;;22.75;11.02;;;12.90;99.90;;;10.84;100.00;100802.16;5000555;28;20073;-86
2021/10/26 03:16:58;;;;;;;20.75;11.13;;;12.90;99.90;;;10.86;100.00;100791.94;4999831;28;20076;-86
2021/10/26 03:19:25;;;;;;;17.70;10.98;;;12.90;99.90;;;10.89;100.00;100788.88;4999051;28;20051;-86
2021/10/26 03:21:53;;;;;;;20.73;11.65;;;12.90;99.90;;;10.92;100.00;100790.38;5000683;28;20053;-86
2021/10/26 03:24:20;;;;;;;24.52;11.82;;;12.90;99.90;;;10.89;100.00;100794.31;4999531;28;20071;-87
2021/10/26 03:26:48;;;;;;;17.77;11.25;;;12.90;99.90;;;10.87;100.00;100796.38;4998973;28;20517;-86
2021/10/26 03:29:16;;;;;;;24.58;11.77;;;12.90;99.90;;;10.85;100.00;100803.88;5000048;28;20045;-85
2021/10/26 03:31:44;;;;;;;21.40;11.15;;;12.90;99.90;;;10.86;100.00;100800.09;5000066;28;20064;-87
2021/10/26 03:34:12;;;;;;;20.30;11.52;;;12.90;99.90;;;10.88;100.00;100798.06;5018277;28;20050;-88
2021/10/26 03:36:41;;;;;;;27.80;13.60;;;12.90;99.90;;;10.90;100.00;100798.72;5000128;28;20128;-87
2021/10/26 03:39:08;;;;;;;25.83;12.57;;;12.90;99.90;;;10.87;100.00;100806.38;5000446;28;20080;-87
2021/10/26 03:41:35;;;;;;;27.10;13.13;;;12.90;99.90;;;10.87;100.00;100804.53;4999664;28;20068;-86
2021/10/26 03:44:04;;;;;;;23.38;12.60;;;12.90;99.90;;;10.88;100.00;100802.66;5016677;28;20594;-86
2021/10/26 03:46:34;;;;;;;21.90;12.23;;;12.90;99.90;;;10.90;100.00;100814.22;4999182;28;20100;-87
2021/10/26 03:49:02;;;;;;;23.95;12.48;;;12.90;99.90;;;10.91;100.00;100811.31;4999424;28;20088;-86
2021/10/26 03:51:32;;;;;;;24.55;11.95;;;12.90;99.90;;;10.92;100.00;100810.28;5000083;28;20494;-86
2021/10/26 03:54:00;;;;;;;24.70;12.48;;;12.90;99.90;;;10.94;100.00;100808.22;5000512;28;20048;-86
2021/10/26 03:56:27;;;;;;;23.30;12.65;;;13.00;99.90;;;10.94;100.00;100812.81;4998752;28;20422;-86
2021/10/26 03:58:59;;;;;;;21.80;11.88;;;12.90;99.90;;;10.98;100.00;100813.31;4999340;28;20049;-86
2021/10/26 04:01:27;;;;;;;20.25;12.38;;;12.90;99.90;;;10.98;100.00;100818.75;4999816;28;20064;-86
2021/10/26 04:03:55;;;;;;;26.33;13.00;;;12.90;99.90;;;10.98;100.00;100818.75;4999997;28;20080;-87
2021/10/26 04:06:25;;;;;;;34.78;13.35;;;12.90;99.90;;;10.97;100.00;100823.38;4999260;28;20053;-86
2021/10/26 04:08:57;;;;;;;23.60;13.82;;;12.90;99.90;;;10.98;100.00;100818.75;5016763;28;20257;-87
2021/10/26 04:11:25;;;;;;;22.55;12.98;;;12.90;99.90;;;10.99;100.00;100815.88;5017910;28;20048;-86
2021/10/26 04:13:58;;;;;;;24.25;13.15;;;12.90;99.90;;;10.98;100.00;100826.94;5000265;28;20133;-86
2021/10/26 04:16:25;;;;;;;25.15;13.52;;;13.00;99.90;;;10.92;100.00;100831.22;4999449;28;20136;-86
2021/10/26 04:18:53;;;;;;;26.40;14.07;;;13.00;99.90;;;10.90;100.00;100828.66;5016050;28;20168;-87
2021/10/26 04:21:20;;;;;;;25.75;14.20;;;13.00;99.90;;;10.93;100.00;100839.22;5015711;28;20045;-87
2021/10/26 04:23:50;;;;;;;23.48;13.02;;;13.00;99.90;;;10.92;100.00;100832.06;5015967;28;20403;-87
2021/10/26 04:26:19;;;;;;;24.52;13.48;;;12.90;99.90;;;10.96;100.00;100836.13;5016337;28;20124;-88
2021/10/26 04:28:47;;;;;;;26.20;13.88;;;13.00;99.90;;;10.93;100.00;100839.22;5015668;28;20401;-87
2021/10/26 04:31:16;;;;;;;23.88;13.48;;;13.00;99.90;;;10.97;100.00;100836.97;4998260;28;20053;-89
2021/10/26 04:33:45;;;;;;;26.60;13.65;;;13.00;99.90;;;11.01;100.00;100845.66;4999556;28;20054;-88
2021/10/26 04:36:13;;;;;;;24.52;13.68;;;12.90;99.90;;;10.99;100.00;100842.25;4999006;28;20505;-88
2021/10/26 04:38:43;;;;;;;19.65;13.25;;;12.90;99.90;;;10.99;100.00;100847.69;4998896;28;20053;-87
2021/10/26 04:41:12;;;;;;;29.77;13.43;;;12.90;99.90;;;10.98;100.00;100848.72;5000038;28;20081;-88
2021/10/26 04:43:41;;;;;;;30.23;14.07;;;12.90;99.90;;;10.99;100.00;100853.16;4999846;28;20494;-88
2021/10/26 04:46:12;;;;;;;27.25;13.95;;;12.90;99.90;;;11.00;100.00;100860.28;4997495;28;20046;-88
2021/10/26 04:48:40;;;;;;;22.52;13.13;;;13.00;99.90;;;10.98;100.00;100856.88;4999261;28;20058;-88
2021/10/26 04:51:07;;;;;;;22.15;13.43;;;13.00;99.90;;;11.01;100.00;100859.25;5014157;28;20045;-88
2021/10/26 04:53:35;;;;;;;28.20;14.18;;;13.00;99.90;;;10.98;100.00;100856.88;4999234;28;20046;-89
2021/10/26 04:56:03;;;;;;;31.58;13.80;;;13.00;99.90;;;10.94;100.00;100851.78;4999760;28;20044;-88
2021/10/26 04:58:38;;;;;;;33.08;14.68;;;13.00;99.90;;;11.00;100.00;100854.84;4998865;28;20056;-88
2021/10/26 05:01:07;;;;;;;26.23;13.93;;;13.00;99.90;;;11.02;100.00;100852.78;5002060;28;20049;-88
2021/10/26 05:03:35;;;;;;;24.20;13.35;;;13.00;99.90;;;11.04;100.00;100856.16;5002294;28;20092;-88
2021/10/26 05:06:03;;;;;;;24.05;13.43;;;13.00;99.90;;;11.04;100.00;100851.59;5003849;28;20413;-89
2021/10/26 05:08:31;;;;;;;23.73;12.68;;;13.00;99.90;;;11.01;100.00;100851.09;5002221;28;20053;-86
2021/10/26 05:10:59;;;;;;;28.88;13.57;;;13.00;99.90;;;11.02;100.00;100852.78;5002768;28;20054;-89
2021/10/26 05:13:32;;;;;;;28.10;14.25;;;13.00;99.90;;;11.03;100.00;100860.78;5003433;28;20120;-91
2021/10/26 05:16:36;;;;;;;31.02;13.63;;;13.00;99.90;;;11.02;100.00;100858.22;4906727;29;20643;-88
2021/10/26 05:19:23;;;;;;;29.80;13.50;;;13.00;99.90;;;11.01;100.00;100862.00;5011870;28;20146;-89
2021/10/26 05:22:13;;;;;;;26.90;13.53;;;13.00;99.90;;;11.02;100.00;100869.13;5020032;28;20510;-89
2021/10/26 05:24:59;;;;;;;25.80;13.63;;;13.00;99.90;;;11.03;100.00;100870.81;5021010;28;20784;-86
2021/10/26 05:27:38;;;;;;;30.25;13.73;;;13.00;99.90;;;10.99;100.00;100867.59;5022040;28;20057;-87
2021/10/26 05:30:07;;;;;;;30.85;16.05;;;13.00;99.90;;;10.97;100.00;100872.38;5022967;28;20463;-87
2021/10/26 05:32:40;;;;;;;33.28;15.40;;;13.00;99.90;;;10.94;100.00;100879.00;5018188;28;20052;-90
2021/10/26 05:35:11;;;;;;;29.75;15.32;;;13.00;99.90;;;10.94;100.00;100876.28;5017647;28;20041;-87
2021/10/26 05:37:39;;;;;;;25.20;14.32;;;13.00;99.90;;;10.98;100.00;100884.97;5019398;28;20804;-86
2021/10/26 05:40:08;;;;;;;27.88;14.88;;;13.00;99.90;;;11.00;100.00;100876.63;5022761;28;20132;-87
2021/10/26 05:42:36;;;;;;;35.15;15.20;;;13.00;99.90;;;11.01;100.00;100872.88;5018969;28;20080;-86
2021/10/26 05:45:04;;;;;;;27.33;14.82;;;13.00;99.90;;;11.01;100.00;100872.88;5037072;28;20064;-86
2021/10/26 05:47:33;;;;;;;25.27;14.18;;;13.00;99.90;;;10.96;100.00;100876.97;5021045;28;20403;-84
2021/10/26 05:50:02;;;;;;;25.85;13.80;;;13.00;99.90;;;10.99;100.00;100875.78;5021606;28;20706;-87
2021/10/26 05:52:29;;;;;;;25.95;14.45;;;13.00;99.90;;;11.00;100.00;100871.16;5039112;28;20063;-87
2021/10/26 05:54:56;;;;;;;30.17;14.25;;;13.00;99.90;;;11.06;100.00;100865.00;5019209;28;20550;-87
2021/10/26 05:57:23;;;;;;;31.35;14.63;;;13.00;99.90;;;11.02;100.00;100875.41;5039144;28;20071;-86
2021/10/26 05:59:51;;;;;;;30.27;15.48;;;13.00;99.90;;;11.02;100.00;100869.13;5020752;28;20569;-86
2021/10/26 06:02:18;;;;;;;26.80;15.57;;;13.00;99.90;;;10.98;100.00;100873.22;5021507;28;20416;-86
2021/10/26 06:04:45;;;;;;;28.88;15.43;;;13.00;99.90;;;10.93;100.00;100876.50;5036475;28;20059;-86
2021/10/26 06:07:14;;;;;;;28.27;14.27;;;13.00;99.90;;;10.92;100.00;100881.06;5021493;28;20033;-86
2021/10/26 06:09:42;;;;;;;28.90;13.57;;;13.00;99.90;;;10.90;100.00;100888.56;5018830;28;20049;-86
2021/10/26 06:12:16;;;;;;;31.55;15.25;;;13.00;99.90;;;10.87;100.00;100886.22;5021815;28;20052;-86
2021/10/26 06:14:45;;;;;;;34.33;14.70;;;13.00;99.90;;;10.91;100.00;100890.28;5018294;28;20421;-87
2021/10/26 06:17:12;;;;;;;31.75;15.15;;;13.00;99.90;;;10.92;100.00;100897.41;5020805;28;20122;-88
2021/10/26 06:19:39;;;;;;;27.95;14.82;;;13.00;99.90;;;10.93;100.00;100904.56;5037430;28;20132;-88
2021/10/26 06:22:07;;;;;;;28.90;14.18;;;13.00;99.90;;;10.91;100.00;100903.91;5020878;28;20048;-88
2021/10/26 06:24:35;;;;;;;29.27;14.32;;;13.00;99.90;;;10.95;100.00;100918.00;5035303;28;20053;-88
2021/10/26 06:27:03;;;;;;;25.60;13.63;;;13.00;99.90;;;10.98;100.00;100916.81;5037891;28;20040;-88
2021/10/26 06:29:31;;;;;;;32.83;15.48;;;13.00;99.90;;;10.99;100.00;100907.63;5020866;28;20751;-88
2021/10/26 06:32:16;;;;;;;25.05;14.60;;;13.00;99.90;;;10.93;100.00;100920.91;5038680;28;20057;-89
2021/10/26 06:34:44;;;;;;;27.08;13.88;;;13.00;99.90;;;10.90;100.00;100925.84;5036486;28;20048;-89
2021/10/26 06:37:13;;;;;;;29.20;14.18;;;13.00;99.90;;;10.93;100.00;100933.69;5020351;28;20124;-88
2021/10/26 06:39:41;;;;;;;26.02;13.02;;;13.00;99.90;;;10.89;100.00;100941.34;5019409;28;20136;-88
2021/10/26 06:42:09;;;;;;;29.17;13.98;;;13.00;99.90;;;10.88;100.00;100933.34;5019448;28;20453;-85
2021/10/26 06:44:55;;;;;;;29.13;13.38;;;13.00;99.90;;;10.87;100.00;100943.41;5036719;28;20061;-89
2021/10/26 06:47:41;;;;;;;33.30;14.52;;;13.00;99.90;;;10.92;100.00;100951.03;5037725;28;20145;-86
2021/10/26 06:50:27;;;;;;;27.70;13.60;;;13.00;99.90;;;10.94;100.00;100949.81;5038930;28;20815;-86
2021/10/26 06:53:13;;;;;;;24.90;12.23;;;13.00;99.90;;;10.98;100.00;100960.38;5036170;28;20429;-86
2021/10/26 06:56:21;;;;;;;24.77;11.52;;;13.00;99.90;;;10.98;100.00;100966.66;4986609;28;20070;-85
2021/10/26 06:59:12;;;;;;;22.35;11.13;;;13.00;99.90;;;11.01;100.00;100962.75;4957903;28;20416;-88
2021/10/26 07:01:58;;;;;;;19.95;12.05;;;13.00;99.90;;;11.01;100.00;100976.38;5027018;28;20065;-85
2021/10/26 07:04:48;;;;;;;30.77;11.82;;;13.00;99.90;;;11.05;100.00;100983.16;5018593;28;20096;-86
2021/10/26 07:07:40;;;;;;;26.63;11.80;;;13.00;99.90;;;11.08;100.00;100980.06;5020004;28;20056;-86
2021/10/26 07:10:13;;;;;;;24.70;11.93;;;13.00;99.90;;;11.15;100.00;100975.63;5020719;28;20056;-84
2021/10/26 07:12:58;;;;;;;27.48;11.73;;;13.00;99.90;;;11.19;100.00;100974.22;5019141;28;20188;-84
2021/10/26 07:15:29;;;;;;;22.63;12.55;;;13.00;99.90;;;11.22;100.00;100973.03;5014998;28;20091;-83
2021/10/26 07:17:57;;;;;;;25.45;13.13;;;13.10;99.90;;;11.23;100.00;100974.72;5019784;28;20132;-86
2021/10/26 07:20:24;;;;;;;26.00;13.00;;;13.10;99.90;;;11.31;100.00;100978.28;5019919;28;20063;-86
2021/10/26 07:23:14;;;;;;;21.50;12.35;;;13.10;99.90;;;11.37;100.00;100973.16;5035274;28;20053;-85
2021/10/26 07:26:13;;;;;;;25.58;12.63;;;13.10;99.90;;;11.34;100.00;100977.06;5003151;28;20045;-85
2021/10/26 07:28:44;;;;;;;27.42;13.65;;;13.20;99.90;;;11.32;100.00;100973.66;5019059;28;20046;-87
2021/10/26 07:31:11;;;;;;;23.77;12.80;;;13.20;99.90;;;11.31;100.00;100986.44;5019393;28;20054;-86
2021/10/26 07:33:38;;;;;;;23.85;12.05;;;13.20;99.90;;;11.29;100.00;100980.34;5016516;28;20397;-85
2021/10/26 07:36:09;;;;;;;27.27;14.07;;;13.20;99.90;;;11.29;100.00;100985.78;5020345;28;20049;-86
2021/10/26 07:38:39;;;;;;;28.30;12.70;;;13.20;99.90;;;11.26;100.00;100986.13;5019890;28;20046;-86
2021/10/26 07:41:07;;;;;;;27.27;13.02;;;13.20;99.90;;;11.24;100.00;100988.19;5019869;28;20049;-85
2021/10/26 07:43:56;;;;;;;24.08;12.85;;;13.20;99.90;;;11.30;100.00;100997.53;5035858;28;20556;-86
2021/10/26 07:46:42;;;;;;;20.90;12.27;;;13.20;99.90;;;11.31;100.00;100999.22;5037939;28;20068;-86
2021/10/26 07:49:13;;;;;;;28.45;12.85;;;13.20;99.90;;;11.33;100.00;101003.47;5018983;28;20052;-87
2021/10/26 07:51:41;;;;;;;26.15;12.95;;;13.20;99.90;;;11.33;100.00;100998.03;5019227;28;20140;-86
2021/10/26 07:54:09;;;;;;;25.38;12.43;;;13.20;99.90;;;11.35;100.00;101004.13;5017247;28;20047;-86
2021/10/26 07:56:36;;;;;;;21.23;12.52;;;13.20;99.90;;;11.35;100.00;101001.41;5018864;28;20073;-86
2021/10/26 07:59:06;;;;;;;30.63;12.75;;;13.20;99.90;;;11.40;100.00;101006.31;5019566;28;20562;-86
2021/10/26 08:01:37;;;;;;;28.02;12.90;;;13.20;99.90;;;11.40;100.00;101002.75;5019575;28;20122;-91
2021/10/26 08:04:23;;;;;;;25.38;12.30;;;13.30;99.90;;;11.53;100.00;100998.41;5035238;28;20060;-89
2021/10/26 08:07:07;;;;;;;32.67;13.13;;;13.30;99.90;;;11.58;100.00;100997.88;5020531;28;20510;-88
2021/10/26 08:09:36;;;;;;;24.65;11.90;;;13.30;99.90;;;11.61;100.00;100997.50;5019763;28;20052;-87
2021/10/26 08:12:04;;;;;;;23.98;12.18;;;13.30;99.90;;;11.60;100.00;101003.16;5019077;28;20422;-86
2021/10/26 08:14:33;;;;;;;24.38;11.65;;;13.30;99.90;;;11.64;100.00;101009.97;5013861;28;20052;-87
2021/10/26 08:17:01;;;;;;;23.00;12.07;;;13.40;99.90;;;11.66;100.00;101007.91;5016927;28;20061;-88
2021/10/26 08:19:28;;;;;;;25.80;12.07;;;13.40;99.90;;;11.69;100.00;101018.41;5019485;28;20045;-88
2021/10/26 08:22:00;;;;;;;17.65;10.65;;;13.40;99.90;;;11.71;100.00;101022.69;5019439;28;20191;-90
2021/10/26 08:24:31;;;;;;;25.20;11.18;;;13.40;99.90;;;11.74;100.00;101019.59;5016922;28;20056;-89
2021/10/26 08:26:59;;;;;;;22.35;10.93;;;13.50;99.90;;;11.75;100.00;101028.63;5019415;28;20052;-88
2021/10/26 08:29:45;;;;;;;27.25;11.50;;;13.40;99.90;;;11.75;100.00;101034.09;5011930;28;20045;-87
2021/10/26 08:35:23;;;;;;;24.33;11.27;;;13.50;99.90;;;11.86;100.00;101044.59;4997127;28;20394;-87
2021/10/26 08:37:54;;;;;;;23.30;11.10;;;13.50;99.90;;;11.85;100.00;101036.59;5007139;28;20046;-88
2021/10/26 08:40:23;;;;;;;;;;;13.50;99.90;;;11.87;100.00;101038.09;5012721;28;20049;-88
2021/10/26 08:42:56;;;;;;;21.25;10.35;;;13.50;99.90;;;11.88;100.00;101038.94;5016321;28;20412;-86
2021/10/26 08:45:25;;;;;;;20.27;10.45;;;13.50;99.90;;;11.85;100.00;101033.84;5020092;28;20132;-84
2021/10/26 08:47:58;;;;;;;20.50;10.02;;;13.50;99.90;;;11.88;100.00;101034.34;5021175;28;20051;-88
2021/10/26 08:50:49;;;;;;;23.90;11.00;;;13.60;99.90;;;11.89;100.00;101035.19;4995399;28;20045;-88
2021/10/26 08:53:17;;;;;;;19.25;10.68;;;13.60;99.90;;;11.91;100.00;101035.88;5019666;28;20406;-88
2021/10/26 08:56:11;;;;;;;20.95;9.90;;;13.60;99.90;;;11.88;100.00;101030.75;5040297;28;20045;-88
2021/10/26 08:58:56;;;;;;;22.33;10.75;;;13.60;99.90;;;11.85;100.00;101036.59;5040685;28;20075;-87
2021/10/26 09:01:25;;;;;;;25.02;10.52;;;13.60;99.90;;;11.88;100.00;101031.63;5023647;28;20460;-88
2021/10/26 09:04:08;;;;;;;22.25;10.13;;;13.60;99.90;;;11.90;100.00;101034.22;5020719;28;20048;-88
2021/10/26 09:06:48;;;;;;;23.13;9.40;;;13.60;99.90;;;11.86;100.00;101041.00;5020886;28;20046;-89
2021/10/26 09:09:18;;;;;;;20.63;9.40;;;13.60;99.90;;;11.90;100.00;101042.38;5020932;28;20049;-88
2021/10/26 09:18:18;;;;;;;18.80;8.48;;;13.60;99.90;;;12.12;100.00;101036.06;5039691;28;20052;-88
2021/10/26 09:21:28;;;;;;;24.30;10.05;;;13.70;99.90;;;12.25;100.00;101034.63;5015043;28;20049;-88
2021/10/26 09:23:59;;;;;;;19.77;8.55;;;13.70;99.90;;;12.31;100.00;101036.63;5018121;28;20048;-88
2021/10/26 09:26:43;;;;;;;16.40;7.88;;;13.70;99.90;;;12.40;100.00;101032.78;5017914;28;20111;-89
2021/10/26 09:29:13;;;;;;;17.88;8.35;;;13.80;99.90;;;12.51;100.00;101035.06;5035472;28;20037;-87
2021/10/26 09:31:41;;;;;;;16.35;7.50;;;13.80;99.90;;;12.60;100.00;101024.91;5017562;28;20087;-87
2021/10/26 09:34:13;;;;;;;15.27;7.32;;;13.80;99.90;;;12.64;100.00;101015.34;5031596;28;20418;-88
2021/10/26 09:36:44;;;;;;;18.63;7.30;;;13.90;99.90;;;12.70;100.00;101019.22;5039034;28;20515;-89
2021/10/26 09:39:19;;;;;;;16.67;7.40;;;13.90;99.90;;;12.73;100.00;101021.53;5020452;28;20069;-91
2021/10/26 09:42:06;;;;;;;17.90;7.65;;;14.00;99.90;;;12.75;100.00;101021.38;5020747;28;20052;-89
2021/10/26 09:44:49;;;;;;;15.13;7.28;;;14.00;99.90;;;12.75;100.00;101021.38;5035618;28;20061;-90
2021/10/26 09:47:23;;;;;;;13.10;6.70;;;14.00;99.90;;;12.80;100.00;101022.50;5019410;28;20523;-90
2021/10/26 09:49:54;;;;;;;16.80;6.40;;;14.00;99.90;;;12.82;100.00;101020.44;5038386;28;20048;-88
2021/10/26 09:52:28;;;;;;;19.27;6.43;;;14.10;99.90;;;12.89;100.00;101026.84;5032644;28;20045;-89
2021/10/26 09:55:15;;;;;;;21.35;5.93;;;14.10;99.90;;;12.90;100.00;101017.59;5015143;28;20490;-89
2021/10/26 09:57:46;;;;;;;16.23;6.13;;;14.20;99.90;;;12.90;100.00;101014.88;5015656;28;20121;-88
2021/10/26 10:00:20;;;;;;;16.65;5.95;;;14.10;99.90;;;12.98;100.00;101013.94;5017147;28;20037;-88
2021/10/26 10:03:03;;;;;;;12.80;5.78;;;14.20;99.90;;;12.98;100.00;101018.56;5035969;28;20041;-88
2021/10/26 10:05:32;;;;;;;15.77;5.28;;;14.20;99.90;;;12.93;100.00;101026.47;5019524;28;20310;-89
2021/10/26 10:08:18;;;;;;;15.98;5.50;;;14.20;99.90;;;12.93;100.00;101021.88;5032425;28;20433;-90
2021/10/26 10:10:45;;;;;;;13.95;5.25;;;14.20;99.90;;;12.99;100.00;101031.19;5018877;28;20045;-90
2021/10/26 10:13:13;;;;;;;12.10;5.35;;;14.30;99.90;;;13.07;100.00;101033.81;5037866;28;20048;-88
2021/10/26 10:15:44;;;;;;;13.15;4.75;;;14.20;99.90;;;13.12;100.00;101025.91;5017850;28;20061;-88
2021/10/26 10:18:15;;;;;;;11.85;4.63;;;14.30;99.90;;;13.09;100.00;101042.69;5034579;28;20033;-85
2021/10/26 10:20:44;;;;;;;20.13;4.75;;;14.30;99.90;;;13.15;100.00;101031.00;5036014;28;20060;-85
2021/10/26 10:23:14;;;;;;;13.50;4.93;;;14.30;99.90;;;13.08;100.00;101025.44;5033477;28;20115;-85